Time;durP1;ratioP1;P1;durP2;ratioP2;P2;SDS_P1;SDS_P2;PMS_P1;PMS_P2;Temp;Humidity;BMP_temperature;BMP_pressure;BME280_temperature;BME280_humidity;BME280_pressure;Samples;Min_cycle;Max_cycle;Signal;HPM_P1;HPM_P2
2023/06/30 00:06:27;;;;;;;5.45;2.38;;;14.70;1.00;;;;;;20710320;28;20052;-41
2023/06/30 00:16:28;;;;;;;8.70;2.70;;;14.50;1.00;;;;;;20710254;28;20046;-41
2023/06/30 00:26:32;;;;;;;5.75;2.47;;;14.50;1.00;;;;;;20709064;28;20034;-41
2023/06/30 00:36:33;;;;;;;4.18;2.33;;;14.40;2.10;;;;;;20704949;28;20037;-41
2023/06/30 00:46:34;;;;;;;9.82;2.95;;;14.30;1.00;;;;;;20707555;28;20034;-41
2023/06/30 00:56:35;;;;;;;6.97;2.72;;;14.20;1.00;;;;;;20705152;28;20049;-41
2023/06/30 01:06:47;;;;;;;7.45;3.10;;;14.10;1.00;;;;;;20704605;28;20041;-41
2023/06/30 01:16:49;;;;;;;5.47;2.33;;;14.00;1.00;;;;;;20713148;28;20550;-41
2023/06/30 01:26:50;;;;;;;6.85;3.38;;;13.90;1.00;;;;;;20710098;28;20096;-41
2023/06/30 01:36:51;;;;;;;7.55;3.03;;;13.80;1.00;;;;;;20707599;28;20635;-40
2023/06/30 01:46:53;;;;;;;6.75;2.97;;;13.70;4.70;;;;;;20704119;28;20041;-41
2023/06/30 01:56:54;;;;;;;5.53;2.88;;;13.50;7.30;;;;;;20702264;28;20045;-41
2023/06/30 02:06:55;;;;;;;3.95;2.58;;;13.40;4.40;;;;;;20704684;28;20042;-41
2023/06/30 02:16:56;;;;;;;5.18;2.72;;;13.30;11.40;;;;;;20701778;28;20037;-41
2023/06/30 02:26:58;;;;;;;5.80;3.10;;;13.20;22.00;;;;;;20700280;28;21743;-41
2023/06/30 02:37:00;;;;;;;7.28;2.90;;;13.20;20.90;;;;;;20697424;28;20126;-41
2023/06/30 02:47:02;;;;;;;5.25;2.65;;;13.10;22.40;;;;;;20699354;28;20038;-41
2023/06/30 02:57:03;;;;;;;5.57;2.72;;;13.00;21.10;;;;;;20696408;28;20898;-41
2023/06/30 03:07:04;;;;;;;5.22;2.63;;;13.00;21.40;;;;;;20695555;28;20049;-41
2023/06/30 03:17:05;;;;;;;6.18;2.45;;;12.90;27.50;;;;;;20700999;28;20107;-41
2023/06/30 03:27:07;;;;;;;7.95;3.10;;;12.90;32.30;;;;;;20708493;28;20086;-41
2023/06/30 03:37:08;;;;;;;4.13;2.65;;;13.00;32.20;;;;;;20710155;28;20820;-41
2023/06/30 03:47:09;;;;;;;6.97;3.53;;;12.90;37.40;;;;;;20716617;28;20038;-41
2023/06/30 03:57:10;;;;;;;7.65;2.88;;;12.90;37.40;;;;;;20716226;28;20058;-41
2023/06/30 04:07:11;;;;;;;4.90;3.00;;;12.80;35.90;;;;;;20712680;28;20042;-41
2023/06/30 04:17:12;;;;;;;6.07;3.05;;;12.90;33.40;;;;;;20710171;28;20050;-41
2023/06/30 04:27:13;;;;;;;6.32;2.95;;;12.90;46.60;;;;;;20713269;28;20103;-41
2023/06/30 04:37:14;;;;;;;6.57;2.92;;;13.00;55.80;;;;;;20711564;28;20098;-40
2023/06/30 04:47:16;;;;;;;8.40;2.80;;;13.10;70.70;;;;;;20708260;28;20083;-41
2023/06/30 04:57:17;;;;;;;7.28;2.78;;;13.50;59.30;;;;;;20713415;28;21870;-41
2023/06/30 05:07:19;;;;;;;6.75;2.45;;;13.90;32.70;;;;;;20705996;28;20034;-41
2023/06/30 05:17:20;;;;;;;4.30;2.20;;;14.20;12.60;;;;;;20707310;28;20041;-41
2023/06/30 05:27:21;;;;;;;6.50;2.70;;;14.50;1.00;;;;;;20706487;28;20429;-40
2023/06/30 05:37:22;;;;;;;5.50;3.10;;;14.70;1.00;;;;;;20703184;28;20469;-41
2023/06/30 05:47:23;;;;;;;6.82;3.00;;;14.90;1.00;;;;;;20704482;28;20038;-41
2023/06/30 05:57:26;;;;;;;6.00;2.58;;;15.20;1.00;;;;;;20703111;28;20114;-41
2023/06/30 06:07:27;;;;;;;6.47;2.38;;;15.50;1.00;;;;;;20703268;28;20104;-41
2023/06/30 06:17:28;;;;;;;6.47;2.38;;;15.70;1.00;;;;;;20702720;28;20049;-41
2023/06/30 06:27:34;;;;;;;5.38;2.65;;;16.10;1.00;;;;;;20705576;28;20034;-41
2023/06/30 06:37:35;;;;;;;5.07;2.90;;;16.40;1.00;;;;;;20701055;28;20042;-41
2023/06/30 06:48:13;;;;;;;7.07;3.25;;;16.60;1.00;;;;;;20709069;28;20633;-40
2023/06/30 06:58:15;;;;;;;9.50;2.50;;;17.10;1.00;;;;;;20689959;28;21494;-41
2023/06/30 07:08:18;;;;;;;4.97;1.92;;;17.20;1.00;;;;;;20696371;28;20444;-41
2023/06/30 07:18:21;;;;;;;6.57;1.85;;;17.50;1.00;;;;;;20680541;28;20095;-41
2023/06/30 07:28:22;;;;;;;5.25;1.88;;;17.60;1.00;;;;;;20698755;28;20038;-41
2023/06/30 07:38:23;;;;;;;7.03;1.98;;;17.90;1.00;;;;;;20694123;28;20091;-41
2023/06/30 07:48:24;;;;;;;6.50;2.08;;;18.00;1.00;;;;;;20692633;28;21421;-41
2023/06/30 07:58:25;;;;;;;3.97;1.88;;;18.20;1.00;;;;;;20691841;28;20516;-41
2023/06/30 08:08:26;;;;;;;5.57;1.90;;;18.50;1.00;;;;;;20706057;28;20092;-41
2023/06/30 08:18:28;;;;;;;3.53;1.33;;;18.70;1.00;;;;;;20705724;28;20038;-41
2023/06/30 08:28:29;;;;;;;4.65;1.83;;;18.80;1.00;;;;;;20706987;28;20022;-41
2023/06/30 08:38:30;;;;;;;3.13;1.23;;;19.20;1.00;;;;;;20706028;28;20071;-41
2023/06/30 08:48:31;;;;;;;4.05;1.30;;;19.30;1.00;;;;;;20704781;28;20030;-41
2023/06/30 08:58:32;;;;;;;5.15;1.50;;;19.70;1.00;;;;;;20707246;28;20079;-41
2023/06/30 09:09:04;;;;;;;3.85;1.60;;;20.00;1.00;;;;;;20707877;28;20095;-41
2023/06/30 09:19:06;;;;;;;4.43;1.52;;;20.00;1.00;;;;;;20704055;28;20502;-41
2023/06/30 09:29:09;;;;;;;3.65;1.60;;;20.20;1.00;;;;;;20707416;28;20446;-41
2023/06/30 09:39:10;;;;;;;3.70;1.58;;;20.30;1.00;;;;;;20701444;28;20049;-41
2023/06/30 09:49:25;;;;;;;4.35;1.50;;;20.30;1.00;;;;;;20703314;28;20041;-41
2023/06/30 09:59:27;;;;;;;3.38;1.60;;;20.20;1.00;;;;;;20702361;28;20123;-41
2023/06/30 10:09:29;;;;;;;4.78;1.88;;;20.40;1.00;;;;;;20697670;28;20555;-41
2023/06/30 10:19:31;;;;;;;6.72;1.70;;;20.50;1.00;;;;;;20679576;28;20506;-41
2023/06/30 10:29:32;;;;;;;4.20;1.65;;;20.60;1.00;;;;;;20711921;28;20083;-41
2023/06/30 10:39:34;;;;;;;4.40;2.08;;;21.20;1.00;;;;;;20710383;28;20041;-41
2023/06/30 10:49:39;;;;;;;6.43;2.55;;;21.70;1.00;;;;;;20712920;28;20306;-41
2023/06/30 10:59:42;;;;;;;3.33;1.88;;;21.40;1.00;;;;;;20705734;28;21452;-41
2023/06/30 11:09:49;;;;;;;7.35;3.85;;;21.80;1.00;;;;;;20704837;28;20117;-41
2023/06/30 13:48:35;;;;;;;2.85;1.48;;;23.60;1.00;;;;;;21551175;24;20055;-85
2023/06/30 14:09:09;;;;;;;4.28;1.90;;;23.40;1.00;;;;;;20020796;24;20073;-81
2023/06/30 14:29:36;;;;;;;7.20;2.90;;;22.60;1.00;;;;;;20953166;24;20937;-45
2023/06/30 14:39:37;;;;;;;5.82;2.60;;;22.80;1.00;;;;;;19861073;29;20099;-44
2023/06/30 14:49:38;;;;;;;5.22;1.98;;;22.50;1.00;;;;;;19830712;29;20122;-44
2023/06/30 14:59:39;;;;;;;4.68;1.40;;;22.70;1.00;;;;;;19838461;29;20163;-44
2023/06/30 15:09:41;;;;;;;3.80;0.80;;;22.90;1.00;;;;;;19867088;29;20101;-44
2023/06/30 15:19:42;;;;;;;5.28;1.38;;;23.40;1.00;;;;;;19875200;29;20047;-44
2023/06/30 15:29:44;;;;;;;3.55;1.10;;;23.30;1.00;;;;;;19825558;29;20406;-44
2023/06/30 15:39:45;;;;;;;3.45;1.50;;;23.10;1.00;;;;;;19812561;29;20047;-44
2023/06/30 15:49:46;;;;;;;4.05;1.20;;;22.70;1.00;;;;;;19818640;29;20563;-44
2023/06/30 15:59:47;;;;;;;3.67;1.60;;;22.50;1.00;;;;;;19818657;29;20106;-44
2023/06/30 16:09:49;;;;;;;4.60;1.80;;;22.50;1.00;;;;;;19821211;29;20372;-44
2023/06/30 16:19:50;;;;;;;5.25;2.42;;;22.70;1.00;;;;;;19817839;29;20043;-44
2023/06/30 16:29:51;;;;;;;3.50;1.98;;;22.40;1.00;;;;;;19801028;29;20058;-44
2023/06/30 16:39:52;;;;;;;8.25;1.90;;;22.20;1.00;;;;;;19818774;29;20054;-44
2023/06/30 16:49:54;;;;;;;5.88;1.17;;;21.90;1.00;;;;;;19813978;29;20124;-45
2023/06/30 16:59:55;;;;;;;3.58;1.05;;;21.80;1.00;;;;;;19812046;29;20055;-45
2023/06/30 17:09:56;;;;;;;4.97;2.00;;;21.40;1.00;;;;;;19812864;29;20055;-44
2023/06/30 17:19:58;;;;;;;4.88;1.40;;;21.20;1.00;;;;;;19813068;29;20047;-45
2023/06/30 17:29:59;;;;;;;6.18;1.42;;;20.70;1.00;;;;;;19807270;29;20058;-44
2023/06/30 17:40:00;;;;;;;8.30;1.42;;;20.50;1.00;;;;;;19804639;29;20906;-45
2023/06/30 17:50:01;;;;;;;3.20;0.98;;;20.40;1.00;;;;;;19794606;29;20047;-44
2023/06/30 18:00:04;;;;;;;4.72;1.38;;;20.30;1.00;;;;;;19780979;29;20134;-45
2023/06/30 18:10:06;;;;;;;4.82;1.20;;;20.20;1.00;;;;;;19782387;29;20126;-45
2023/06/30 18:20:08;;;;;;;2.75;1.00;;;20.10;1.00;;;;;;19783753;29;20137;-45
2023/06/30 18:30:09;;;;;;;7.15;1.55;;;20.10;1.00;;;;;;19785616;29;20162;-45
2023/06/30 18:40:11;;;;;;;5.60;1.38;;;20.00;1.00;;;;;;19783339;29;20145;-45
2023/06/30 18:50:13;;;;;;;6.25;1.80;;;19.90;1.00;;;;;;19785305;29;20047;-45
2023/06/30 19:00:15;;;;;;;7.70;1.85;;;19.80;1.00;;;;;;19783963;29;20560;-44
2023/06/30 19:10:16;;;;;;;10.30;2.75;;;19.70;1.00;;;;;;19782714;29;20131;-45
2023/06/30 19:20:18;;;;;;;6.65;1.90;;;19.70;1.00;;;;;;19779959;29;20039;-44
2023/06/30 19:30:21;;;;;;;6.00;1.65;;;19.60;1.00;;;;;;19783174;29;20059;-46
2023/06/30 19:40:23;;;;;;;4.38;1.92;;;19.50;1.00;;;;;;19789453;29;20624;-44
2023/06/30 19:50:27;;;;;;;7.95;2.28;;;19.30;1.00;;;;;;19777728;29;20043;-44
2023/06/30 20:00:29;;;;;;;7.15;2.08;;;19.10;1.00;;;;;;19786968;29;20517;-44
2023/06/30 20:10:30;;;;;;;5.53;1.90;;;19.20;1.00;;;;;;19808374;29;20084;-44
2023/06/30 20:20:31;;;;;;;7.50;1.60;;;19.40;1.00;;;;;;19805101;29;20051;-44
2023/06/30 20:30:33;;;;;;;8.95;1.95;;;19.20;1.00;;;;;;19806642;29;20066;-44
2023/06/30 20:40:34;;;;;;;11.35;2.22;;;19.20;1.00;;;;;;19807827;29;20074;-44
2023/06/30 20:50:35;;;;;;;5.85;1.77;;;19.20;1.00;;;;;;19807268;29;20130;-45
2023/06/30 21:00:36;;;;;;;6.63;1.70;;;19.20;1.00;;;;;;19801414;29;20657;-44
2023/06/30 21:10:38;;;;;;;5.75;1.70;;;19.20;1.00;;;;;;19800064;29;20099;-45
2023/06/30 21:20:39;;;;;;;7.50;2.63;;;19.10;1.00;;;;;;19801305;29;20125;-45
2023/06/30 21:30:40;;;;;;;5.18;1.77;;;19.10;1.00;;;;;;19785735;29;20114;-45
2023/06/30 21:40:41;;;;;;;4.90;1.90;;;19.10;1.00;;;;;;19799663;29;20528;-44
2023/06/30 21:50:42;;;;;;;5.30;1.98;;;19.10;1.00;;;;;;19801535;29;20727;-45
2023/06/30 22:00:44;;;;;;;5.57;1.92;;;19.00;1.00;;;;;;19794381;29;20242;-44
2023/06/30 22:10:45;;;;;;;5.53;1.60;;;19.00;1.00;;;;;;19801648;29;20496;-44
2023/06/30 22:20:46;;;;;;;4.97;1.83;;;19.00;1.00;;;;;;19797852;29;20291;-45
2023/06/30 22:30:47;;;;;;;4.70;1.63;;;18.90;1.00;;;;;;19789188;29;20169;-44
2023/06/30 22:40:48;;;;;;;4.57;1.92;;;19.00;1.00;;;;;;19785730;29;20054;-45
2023/06/30 22:50:49;;;;;;;5.45;1.88;;;19.00;1.00;;;;;;19797422;29;20039;-45
2023/06/30 23:00:51;;;;;;;3.53;1.63;;;19.00;1.00;;;;;;19791745;29;20047;-44
2023/06/30 23:10:52;;;;;;;5.13;1.98;;;18.90;1.00;;;;;;19796244;29;20096;-45
2023/06/30 23:20:54;;;;;;;5.30;2.30;;;18.90;1.00;;;;;;19789495;29;20507;-45
2023/06/30 23:30:55;;;;;;;3.80;2.00;;;19.00;1.00;;;;;;19789428;29;20114;-40
2023/06/30 23:40:56;;;;;;;8.93;2.83;;;18.90;1.00;;;;;;19801287;29;20054;-40
2023/06/30 23:50:57;;;;;;;4.50;2.25;;;18.80;1.00;;;;;;19799575;29;20143;-39
